sensor_id;sensor_type;location;lat;lon;timestamp;P1;durP1;ratioP1;P2;durP2;ratioP2
3881;SDS011;1956;53.482;10.238;2023-04-19T00:03:38;8.93;;;5.60;;
3881;SDS011;1956;53.482;10.238;2023-04-19T00:08:38;12.83;;;5.97;;
3881;SDS011;1956;53.482;10.238;2023-04-19T00:13:38;9.10;;;5.20;;
3881;SDS011;1956;53.482;10.238;2023-04-19T00:18:39;12.20;;;6.27;;
3881;SDS011;1956;53.482;10.238;2023-04-19T00:23:39;9.80;;;5.40;;
3881;SDS011;1956;53.482;10.238;2023-04-19T00:28:39;7.90;;;5.17;;
3881;SDS011;1956;53.482;10.238;2023-04-19T00:33:40;7.30;;;4.70;;
3881;SDS011;1956;53.482;10.238;2023-04-19T00:38:40;9.20;;;5.50;;
3881;SDS011;1956;53.482;10.238;2023-04-19T00:43:40;8.07;;;4.50;;
3881;SDS011;1956;53.482;10.238;2023-04-19T00:48:41;11.20;;;4.57;;
3881;SDS011;1956;53.482;10.238;2023-04-19T00:53:41;6.50;;;4.43;;
3881;SDS011;1956;53.482;10.238;2023-04-19T00:58:42;6.60;;;3.80;;
3881;SDS011;1956;53.482;10.238;2023-04-19T01:03:42;6.93;;;4.53;;
3881;SDS011;1956;53.482;10.238;2023-04-19T01:08:43;6.80;;;4.87;;
3881;SDS011;1956;53.482;10.238;2023-04-19T01:13:43;10.63;;;5.20;;
3881;SDS011;1956;53.482;10.238;2023-04-19T01:18:43;6.80;;;3.80;;
3881;SDS011;1956;53.482;10.238;2023-04-19T01:23:44;5.40;;;4.28;;
3881;SDS011;1956;53.482;10.238;2023-04-19T01:28:44;8.37;;;3.70;;
3881;SDS011;1956;53.482;10.238;2023-04-19T01:33:44;3.53;;;3.20;;
3881;SDS011;1956;53.482;10.238;2023-04-19T01:38:45;3.70;;;3.27;;
3881;SDS011;1956;53.482;10.238;2023-04-19T01:43:46;3.63;;;3.20;;
3881;SDS011;1956;53.482;10.238;2023-04-19T01:48:47;4.07;;;2.77;;
3881;SDS011;1956;53.482;10.238;2023-04-19T01:53:47;5.87;;;3.27;;
3881;SDS011;1956;53.482;10.238;2023-04-19T01:58:52;5.20;;;2.80;;
3881;SDS011;1956;53.482;10.238;2023-04-19T02:03:52;8.60;;;3.30;;
3881;SDS011;1956;53.482;10.238;2023-04-19T02:08:53;3.23;;;2.90;;
3881;SDS011;1956;53.482;10.238;2023-04-19T02:13:53;5.57;;;3.40;;
3881;SDS011;1956;53.482;10.238;2023-04-19T02:18:53;4.13;;;2.63;;
3881;SDS011;1956;53.482;10.238;2023-04-19T02:23:53;5.63;;;3.00;;
3881;SDS011;1956;53.482;10.238;2023-04-19T02:28:54;5.20;;;3.37;;
3881;SDS011;1956;53.482;10.238;2023-04-19T02:33:54;7.07;;;3.53;;
3881;SDS011;1956;53.482;10.238;2023-04-19T02:38:54;3.40;;;3.10;;
3881;SDS011;1956;53.482;10.238;2023-04-19T02:43:54;5.20;;;2.50;;
3881;SDS011;1956;53.482;10.238;2023-04-19T02:48:55;5.50;;;3.30;;
3881;SDS011;1956;53.482;10.238;2023-04-19T02:53:55;4.50;;;2.70;;
3881;SDS011;1956;53.482;10.238;2023-04-19T02:58:57;5.35;;;3.20;;
3881;SDS011;1956;53.482;10.238;2023-04-19T03:03:59;4.20;;;3.30;;
3881;SDS011;1956;53.482;10.238;2023-04-19T03:08:59;4.33;;;3.50;;
3881;SDS011;1956;53.482;10.238;2023-04-19T03:13:59;5.47;;;3.20;;
3881;SDS011;1956;53.482;10.238;2023-04-19T03:19:00;4.60;;;3.37;;
3881;SDS011;1956;53.482;10.238;2023-04-19T03:24:00;6.50;;;3.33;;
3881;SDS011;1956;53.482;10.238;2023-04-19T03:29:00;5.83;;;2.80;;
3881;SDS011;1956;53.482;10.238;2023-04-19T03:34:01;4.87;;;3.50;;
3881;SDS011;1956;53.482;10.238;2023-04-19T03:39:01;5.40;;;3.30;;
3881;SDS011;1956;53.482;10.238;2023-04-19T03:44:02;6.13;;;3.77;;
3881;SDS011;1956;53.482;10.238;2023-04-19T03:49:02;11.13;;;4.30;;
3881;SDS011;1956;53.482;10.238;2023-04-19T03:54:02;4.47;;;3.20;;
3881;SDS011;1956;53.482;10.238;2023-04-19T03:59:03;11.20;;;3.57;;
3881;SDS011;1956;53.482;10.238;2023-04-19T04:04:03;6.43;;;3.13;;
3881;SDS011;1956;53.482;10.238;2023-04-19T04:09:03;6.40;;;3.60;;
3881;SDS011;1956;53.482;10.238;2023-04-19T04:14:03;6.90;;;3.13;;
3881;SDS011;1956;53.482;10.238;2023-04-19T04:19:04;5.72;;;4.00;;
3881;SDS011;1956;53.482;10.238;2023-04-19T04:24:04;5.63;;;3.70;;
3881;SDS011;1956;53.482;10.238;2023-04-19T04:29:04;5.27;;;3.73;;
3881;SDS011;1956;53.482;10.238;2023-04-19T04:34:05;7.82;;;3.38;;
3881;SDS011;1956;53.482;10.238;2023-04-19T04:39:05;6.75;;;3.20;;
3881;SDS011;1956;53.482;10.238;2023-04-19T04:44:08;4.83;;;3.40;;
3881;SDS011;1956;53.482;10.238;2023-04-19T04:49:09;3.25;;;2.70;;
3881;SDS011;1956;53.482;10.238;2023-04-19T04:54:09;5.07;;;2.77;;
3881;SDS011;1956;53.482;10.238;2023-04-19T04:59:09;4.73;;;2.90;;
3881;SDS011;1956;53.482;10.238;2023-04-19T05:04:10;4.60;;;3.10;;
3881;SDS011;1956;53.482;10.238;2023-04-19T05:09:10;4.70;;;2.80;;
3881;SDS011;1956;53.482;10.238;2023-04-19T05:14:10;6.93;;;3.20;;
3881;SDS011;1956;53.482;10.238;2023-04-19T05:19:11;5.43;;;3.10;;
3881;SDS011;1956;53.482;10.238;2023-04-19T05:24:11;3.05;;;2.45;;
3881;SDS011;1956;53.482;10.238;2023-04-19T05:29:12;3.00;;;2.50;;
3881;SDS011;1956;53.482;10.238;2023-04-19T05:34:12;5.63;;;2.85;;
3881;SDS011;1956;53.482;10.238;2023-04-19T05:39:12;3.85;;;2.53;;
3881;SDS011;1956;53.482;10.238;2023-04-19T05:44:12;10.30;;;2.60;;
3881;SDS011;1956;53.482;10.238;2023-04-19T05:49:13;3.67;;;2.50;;
3881;SDS011;1956;53.482;10.238;2023-04-19T05:54:13;3.97;;;2.67;;
3881;SDS011;1956;53.482;10.238;2023-04-19T05:59:13;5.47;;;2.50;;
3881;SDS011;1956;53.482;10.238;2023-04-19T06:04:14;2.43;;;2.03;;
3881;SDS011;1956;53.482;10.238;2023-04-19T06:09:14;1.57;;;1.47;;
3881;SDS011;1956;53.482;10.238;2023-04-19T06:14:15;3.15;;;1.80;;
3881;SDS011;1956;53.482;10.238;2023-04-19T06:19:15;4.13;;;1.33;;
3881;SDS011;1956;53.482;10.238;2023-04-19T06:24:15;2.20;;;1.35;;
3881;SDS011;1956;53.482;10.238;2023-04-19T06:29:16;1.33;;;1.07;;
3881;SDS011;1956;53.482;10.238;2023-04-19T06:34:17;2.97;;;1.43;;
3881;SDS011;1956;53.482;10.238;2023-04-19T06:39:17;1.50;;;1.40;;
3881;SDS011;1956;53.482;10.238;2023-04-19T06:44:17;2.10;;;0.87;;
3881;SDS011;1956;53.482;10.238;2023-04-19T06:49:18;2.37;;;1.07;;
3881;SDS011;1956;53.482;10.238;2023-04-19T06:54:18;1.20;;;0.90;;
3881;SDS011;1956;53.482;10.238;2023-04-19T06:59:19;0.60;;;0.60;;
3881;SDS011;1956;53.482;10.238;2023-04-19T07:04:19;4.23;;;1.10;;
3881;SDS011;1956;53.482;10.238;2023-04-19T07:09:19;1.17;;;0.90;;
3881;SDS011;1956;53.482;10.238;2023-04-19T07:14:20;0.83;;;0.83;;
3881;SDS011;1956;53.482;10.238;2023-04-19T07:19:20;2.17;;;1.23;;
3881;SDS011;1956;53.482;10.238;2023-04-19T07:24:21;1.37;;;1.00;;
3881;SDS011;1956;53.482;10.238;2023-04-19T07:29:22;0.90;;;0.90;;
3881;SDS011;1956;53.482;10.238;2023-04-19T07:34:22;0.80;;;0.70;;
3881;SDS011;1956;53.482;10.238;2023-04-19T07:39:22;2.03;;;1.03;;
3881;SDS011;1956;53.482;10.238;2023-04-19T07:44:23;1.27;;;0.98;;
3881;SDS011;1956;53.482;10.238;2023-04-19T07:49:23;3.30;;;1.08;;
3881;SDS011;1956;53.482;10.238;2023-04-19T07:54:23;5.38;;;1.30;;
3881;SDS011;1956;53.482;10.238;2023-04-19T07:59:23;2.50;;;1.17;;
3881;SDS011;1956;53.482;10.238;2023-04-19T08:04:24;5.20;;;0.93;;
3881;SDS011;1956;53.482;10.238;2023-04-19T08:09:24;1.67;;;1.07;;
3881;SDS011;1956;53.482;10.238;2023-04-19T08:14:24;0.98;;;0.90;;
3881;SDS011;1956;53.482;10.238;2023-04-19T08:19:25;1.23;;;0.90;;
3881;SDS011;1956;53.482;10.238;2023-04-19T08:24:25;3.23;;;1.10;;
3881;SDS011;1956;53.482;10.238;2023-04-19T08:29:25;2.53;;;1.10;;
3881;SDS011;1956;53.482;10.238;2023-04-19T08:34:26;0.83;;;0.80;;
3881;SDS011;1956;53.482;10.238;2023-04-19T08:39:26;2.03;;;1.50;;
3881;SDS011;1956;53.482;10.238;2023-04-19T08:44:27;3.70;;;1.13;;
3881;SDS011;1956;53.482;10.238;2023-04-19T08:49:27;1.43;;;1.23;;
3881;SDS011;1956;53.482;10.238;2023-04-19T08:54:28;1.83;;;1.10;;
3881;SDS011;1956;53.482;10.238;2023-04-19T08:59:28;1.07;;;1.00;;
3881;SDS011;1956;53.482;10.238;2023-04-19T09:04:29;2.33;;;1.53;;
3881;SDS011;1956;53.482;10.238;2023-04-19T09:09:30;1.73;;;1.37;;
3881;SDS011;1956;53.482;10.238;2023-04-19T09:14:30;4.77;;;1.50;;
3881;SDS011;1956;53.482;10.238;2023-04-19T09:19:43;5.70;;;1.48;;
3881;SDS011;1956;53.482;10.238;2023-04-19T09:24:44;1.97;;;1.40;;
3881;SDS011;1956;53.482;10.238;2023-04-19T09:29:51;1.42;;;1.35;;
3881;SDS011;1956;53.482;10.238;2023-04-19T09:40:23;2.73;;;1.37;;
3881;SDS011;1956;53.482;10.238;2023-04-19T09:45:22;2.30;;;1.50;;
3881;SDS011;1956;53.482;10.238;2023-04-19T09:50:22;3.00;;;1.60;;
3881;SDS011;1956;53.482;10.238;2023-04-19T09:55:23;1.83;;;1.40;;
3881;SDS011;1956;53.482;10.238;2023-04-19T10:00:23;5.80;;;1.50;;
3881;SDS011;1956;53.482;10.238;2023-04-19T10:05:24;2.03;;;1.90;;
3881;SDS011;1956;53.482;10.238;2023-04-19T10:10:24;1.87;;;1.50;;
3881;SDS011;1956;53.482;10.238;2023-04-19T10:15:25;2.43;;;1.63;;
3881;SDS011;1956;53.482;10.238;2023-04-19T10:20:29;2.30;;;1.30;;
3881;SDS011;1956;53.482;10.238;2023-04-19T10:25:31;2.60;;;1.50;;
3881;SDS011;1956;53.482;10.238;2023-04-19T10:30:31;4.20;;;1.90;;
3881;SDS011;1956;53.482;10.238;2023-04-19T10:35:36;6.20;;;1.70;;
3881;SDS011;1956;53.482;10.238;2023-04-19T10:40:54;5.33;;;2.00;;
3881;SDS011;1956;53.482;10.238;2023-04-19T10:46:05;3.97;;;1.80;;
3881;SDS011;1956;53.482;10.238;2023-04-19T10:51:16;2.10;;;1.90;;
3881;SDS011;1956;53.482;10.238;2023-04-19T10:56:22;1.50;;;1.40;;
3881;SDS011;1956;53.482;10.238;2023-04-19T11:01:40;2.83;;;2.00;;
3881;SDS011;1956;53.482;10.238;2023-04-19T11:12:11;2.53;;;1.80;;
3881;SDS011;1956;53.482;10.238;2023-04-19T11:17:18;7.20;;;1.63;;
3881;SDS011;1956;53.482;10.238;2023-04-19T11:22:32;2.27;;;1.43;;
3881;SDS011;1956;53.482;10.238;2023-04-19T11:27:33;2.20;;;2.00;;
3881;SDS011;1956;53.482;10.238;2023-04-19T11:32:34;4.40;;;2.00;;
3881;SDS011;1956;53.482;10.238;2023-04-19T11:37:35;5.10;;;1.70;;
3881;SDS011;1956;53.482;10.238;2023-04-19T11:42:35;4.30;;;1.90;;
3881;SDS011;1956;53.482;10.238;2023-04-19T11:47:45;8.33;;;1.87;;
3881;SDS011;1956;53.482;10.238;2023-04-19T11:52:49;7.43;;;1.70;;
3881;SDS011;1956;53.482;10.238;2023-04-19T11:57:49;5.13;;;1.50;;
3881;SDS011;1956;53.482;10.238;2023-04-19T12:02:49;4.77;;;2.10;;
3881;SDS011;1956;53.482;10.238;2023-04-19T12:08:00;5.07;;;1.90;;
3881;SDS011;1956;53.482;10.238;2023-04-19T12:13:17;3.20;;;1.50;;
3881;SDS011;1956;53.482;10.238;2023-04-19T12:18:17;2.40;;;1.53;;
3881;SDS011;1956;53.482;10.238;2023-04-19T12:23:18;3.13;;;1.80;;
3881;SDS011;1956;53.482;10.238;2023-04-19T12:28:19;3.27;;;1.63;;
3881;SDS011;1956;53.482;10.238;2023-04-19T12:33:19;3.50;;;2.17;;
3881;SDS011;1956;53.482;10.238;2023-04-19T12:38:19;6.83;;;1.50;;
3881;SDS011;1956;53.482;10.238;2023-04-19T12:43:19;8.70;;;1.60;;
3881;SDS011;1956;53.482;10.238;2023-04-19T12:48:20;2.80;;;1.50;;
3881;SDS011;1956;53.482;10.238;2023-04-19T12:53:20;2.00;;;1.80;;
3881;SDS011;1956;53.482;10.238;2023-04-19T12:58:23;1.87;;;1.60;;
3881;SDS011;1956;53.482;10.238;2023-04-19T13:03:24;5.67;;;2.13;;
3881;SDS011;1956;53.482;10.238;2023-04-19T13:08:24;11.60;;;1.70;;
3881;SDS011;1956;53.482;10.238;2023-04-19T13:13:24;5.07;;;1.83;;
3881;SDS011;1956;53.482;10.238;2023-04-19T13:18:25;10.50;;;1.77;;
3881;SDS011;1956;53.482;10.238;2023-04-19T13:23:25;2.08;;;1.88;;
3881;SDS011;1956;53.482;10.238;2023-04-19T13:28:25;3.87;;;1.70;;
3881;SDS011;1956;53.482;10.238;2023-04-19T13:33:25;1.83;;;1.60;;
3881;SDS011;1956;53.482;10.238;2023-04-19T13:38:26;4.63;;;1.80;;
3881;SDS011;1956;53.482;10.238;2023-04-19T13:43:26;4.13;;;2.20;;
3881;SDS011;1956;53.482;10.238;2023-04-19T13:48:26;2.10;;;1.43;;
3881;SDS011;1956;53.482;10.238;2023-04-19T13:53:28;3.07;;;1.50;;
3881;SDS011;1956;53.482;10.238;2023-04-19T13:58:28;6.67;;;2.37;;
3881;SDS011;1956;53.482;10.238;2023-04-19T14:03:28;2.60;;;2.00;;
3881;SDS011;1956;53.482;10.238;2023-04-19T14:08:28;2.30;;;2.10;;
3881;SDS011;1956;53.482;10.238;2023-04-19T14:13:29;2.03;;;1.40;;
3881;SDS011;1956;53.482;10.238;2023-04-19T14:18:29;3.03;;;1.40;;
3881;SDS011;1956;53.482;10.238;2023-04-19T14:23:29;2.00;;;1.80;;
3881;SDS011;1956;53.482;10.238;2023-04-19T14:28:30;6.13;;;1.83;;
3881;SDS011;1956;53.482;10.238;2023-04-19T14:33:30;3.07;;;1.60;;
3881;SDS011;1956;53.482;10.238;2023-04-19T14:38:30;3.77;;;1.70;;
3881;SDS011;1956;53.482;10.238;2023-04-19T14:43:31;3.17;;;1.93;;
3881;SDS011;1956;53.482;10.238;2023-04-19T14:48:32;3.17;;;1.70;;
3881;SDS011;1956;53.482;10.238;2023-04-19T14:53:32;11.70;;;1.50;;
3881;SDS011;1956;53.482;10.238;2023-04-19T14:58:32;2.20;;;1.63;;
3881;SDS011;1956;53.482;10.238;2023-04-19T15:03:32;3.63;;;1.90;;
3881;SDS011;1956;53.482;10.238;2023-04-19T15:08:33;2.80;;;2.10;;
3881;SDS011;1956;53.482;10.238;2023-04-19T15:13:33;5.23;;;1.57;;
3881;SDS011;1956;53.482;10.238;2023-04-19T15:18:34;4.53;;;2.43;;
3881;SDS011;1956;53.482;10.238;2023-04-19T15:23:37;2.33;;;1.70;;
3881;SDS011;1956;53.482;10.238;2023-04-19T15:28:38;3.23;;;1.70;;
3881;SDS011;1956;53.482;10.238;2023-04-19T15:33:38;3.63;;;2.00;;
3881;SDS011;1956;53.482;10.238;2023-04-19T15:38:38;5.90;;;1.73;;
3881;SDS011;1956;53.482;10.238;2023-04-19T15:43:38;3.93;;;1.60;;
3881;SDS011;1956;53.482;10.238;2023-04-19T15:48:39;2.50;;;1.80;;
3881;SDS011;1956;53.482;10.238;2023-04-19T15:53:39;1.90;;;1.40;;
3881;SDS011;1956;53.482;10.238;2023-04-19T15:58:40;7.70;;;2.07;;
3881;SDS011;1956;53.482;10.238;2023-04-19T16:03:41;4.57;;;2.03;;
3881;SDS011;1956;53.482;10.238;2023-04-19T16:08:41;7.32;;;2.13;;
3881;SDS011;1956;53.482;10.238;2023-04-19T16:13:41;1.53;;;1.43;;
3881;SDS011;1956;53.482;10.238;2023-04-19T16:18:41;5.70;;;1.73;;
3881;SDS011;1956;53.482;10.238;2023-04-19T16:23:42;3.67;;;1.77;;
3881;SDS011;1956;53.482;10.238;2023-04-19T16:28:42;4.33;;;2.07;;
3881;SDS011;1956;53.482;10.238;2023-04-19T16:33:42;4.70;;;1.47;;
3881;SDS011;1956;53.482;10.238;2023-04-19T16:38:42;6.68;;;1.52;;
3881;SDS011;1956;53.482;10.238;2023-04-19T16:43:43;2.13;;;1.75;;
3881;SDS011;1956;53.482;10.238;2023-04-19T16:48:43;3.33;;;1.57;;
3881;SDS011;1956;53.482;10.238;2023-04-19T16:53:43;5.67;;;2.70;;
3881;SDS011;1956;53.482;10.238;2023-04-19T16:58:44;4.77;;;2.10;;
3881;SDS011;1956;53.482;10.238;2023-04-19T17:03:45;6.33;;;1.73;;
3881;SDS011;1956;53.482;10.238;2023-04-19T17:08:45;5.03;;;1.30;;
3881;SDS011;1956;53.482;10.238;2023-04-19T17:13:46;2.50;;;1.57;;
3881;SDS011;1956;53.482;10.238;2023-04-19T17:18:46;3.93;;;1.83;;
3881;SDS011;1956;53.482;10.238;2023-04-19T17:23:46;4.60;;;1.40;;
3881;SDS011;1956;53.482;10.238;2023-04-19T17:28:46;4.57;;;1.80;;
3881;SDS011;1956;53.482;10.238;2023-04-19T17:33:46;1.57;;;1.47;;
3881;SDS011;1956;53.482;10.238;2023-04-19T17:38:47;2.50;;;2.22;;
3881;SDS011;1956;53.482;10.238;2023-04-19T17:43:47;3.70;;;1.40;;
3881;SDS011;1956;53.482;10.238;2023-04-19T17:48:47;8.93;;;1.90;;
3881;SDS011;1956;53.482;10.238;2023-04-19T17:53:48;6.00;;;2.00;;
3881;SDS011;1956;53.482;10.238;2023-04-19T17:58:48;5.20;;;2.40;;
3881;SDS011;1956;53.482;10.238;2023-04-19T18:03:48;1.77;;;1.67;;
3881;SDS011;1956;53.482;10.238;2023-04-19T18:08:48;3.80;;;1.73;;
3881;SDS011;1956;53.482;10.238;2023-04-19T18:13:48;5.23;;;2.33;;
3881;SDS011;1956;53.482;10.238;2023-04-19T18:18:49;8.87;;;2.10;;
3881;SDS011;1956;53.482;10.238;2023-04-19T18:23:49;2.60;;;2.00;;
3881;SDS011;1956;53.482;10.238;2023-04-19T18:28:51;4.77;;;2.17;;
3881;SDS011;1956;53.482;10.238;2023-04-19T18:33:51;6.73;;;1.90;;
3881;SDS011;1956;53.482;10.238;2023-04-19T18:38:51;7.37;;;2.00;;
3881;SDS011;1956;53.482;10.238;2023-04-19T18:43:52;3.63;;;2.10;;
3881;SDS011;1956;53.482;10.238;2023-04-19T18:48:53;2.67;;;1.60;;
3881;SDS011;1956;53.482;10.238;2023-04-19T18:53:53;5.30;;;1.97;;
3881;SDS011;1956;53.482;10.238;2023-04-19T18:58:54;4.53;;;1.83;;
3881;SDS011;1956;53.482;10.238;2023-04-19T19:03:56;1.87;;;1.30;;
3881;SDS011;1956;53.482;10.238;2023-04-19T19:08:56;5.30;;;2.27;;
3881;SDS011;1956;53.482;10.238;2023-04-19T19:13:58;4.10;;;1.97;;
3881;SDS011;1956;53.482;10.238;2023-04-19T19:18:58;6.07;;;1.98;;
3881;SDS011;1956;53.482;10.238;2023-04-19T19:23:59;3.38;;;2.15;;
3881;SDS011;1956;53.482;10.238;2023-04-19T19:28:59;6.50;;;2.13;;
3881;SDS011;1956;53.482;10.238;2023-04-19T19:33:59;3.20;;;1.70;;
3881;SDS011;1956;53.482;10.238;2023-04-19T19:39:00;5.00;;;1.80;;
3881;SDS011;1956;53.482;10.238;2023-04-19T19:44:00;5.10;;;1.77;;
3881;SDS011;1956;53.482;10.238;2023-04-19T19:49:00;2.10;;;1.65;;
3881;SDS011;1956;53.482;10.238;2023-04-19T19:54:00;3.90;;;2.47;;
3881;SDS011;1956;53.482;10.238;2023-04-19T19:59:01;3.37;;;1.73;;
3881;SDS011;1956;53.482;10.238;2023-04-19T20:04:01;5.80;;;1.80;;
3881;SDS011;1956;53.482;10.238;2023-04-19T20:09:02;4.53;;;1.43;;
3881;SDS011;1956;53.482;10.238;2023-04-19T20:14:03;2.20;;;1.40;;
3881;SDS011;1956;53.482;10.238;2023-04-19T20:19:05;7.13;;;1.73;;
3881;SDS011;1956;53.482;10.238;2023-04-19T20:24:08;5.93;;;2.57;;
3881;SDS011;1956;53.482;10.238;2023-04-19T20:29:08;4.50;;;2.20;;
3881;SDS011;1956;53.482;10.238;2023-04-19T20:34:09;9.77;;;2.37;;
3881;SDS011;1956;53.482;10.238;2023-04-19T20:39:09;4.90;;;2.57;;
3881;SDS011;1956;53.482;10.238;2023-04-19T20:44:12;5.87;;;3.00;;
3881;SDS011;1956;53.482;10.238;2023-04-19T20:49:12;5.20;;;2.83;;
3881;SDS011;1956;53.482;10.238;2023-04-19T20:54:13;4.87;;;2.87;;
3881;SDS011;1956;53.482;10.238;2023-04-19T20:59:13;5.30;;;2.30;;
3881;SDS011;1956;53.482;10.238;2023-04-19T21:04:13;7.70;;;2.60;;
3881;SDS011;1956;53.482;10.238;2023-04-19T21:09:13;4.63;;;2.30;;
3881;SDS011;1956;53.482;10.238;2023-04-19T21:14:14;4.18;;;2.35;;
3881;SDS011;1956;53.482;10.238;2023-04-19T21:19:14;5.07;;;2.40;;
3881;SDS011;1956;53.482;10.238;2023-04-19T21:24:15;5.43;;;1.60;;
3881;SDS011;1956;53.482;10.238;2023-04-19T21:29:15;4.40;;;2.35;;
3881;SDS011;1956;53.482;10.238;2023-04-19T21:34:15;3.40;;;2.03;;
3881;SDS011;1956;53.482;10.238;2023-04-19T21:39:15;4.97;;;2.10;;
3881;SDS011;1956;53.482;10.238;2023-04-19T21:44:16;2.05;;;1.75;;
3881;SDS011;1956;53.482;10.238;2023-04-19T21:49:16;10.43;;;2.43;;
3881;SDS011;1956;53.482;10.238;2023-04-19T21:54:16;3.33;;;1.90;;
3881;SDS011;1956;53.482;10.238;2023-04-19T21:59:16;3.23;;;2.27;;
3881;SDS011;1956;53.482;10.238;2023-04-19T22:04:17;1.83;;;1.73;;
3881;SDS011;1956;53.482;10.238;2023-04-19T22:09:17;3.23;;;1.53;;
3881;SDS011;1956;53.482;10.238;2023-04-19T22:14:18;3.37;;;1.63;;
3881;SDS011;1956;53.482;10.238;2023-04-19T22:19:18;2.75;;;2.17;;
3881;SDS011;1956;53.482;10.238;2023-04-19T22:24:18;2.10;;;1.90;;
3881;SDS011;1956;53.482;10.238;2023-04-19T22:29:20;1.70;;;1.60;;
3881;SDS011;1956;53.482;10.238;2023-04-19T22:34:21;5.53;;;2.20;;
3881;SDS011;1956;53.482;10.238;2023-04-19T22:39:21;7.30;;;1.90;;
3881;SDS011;1956;53.482;10.238;2023-04-19T22:44:21;1.77;;;1.20;;
3881;SDS011;1956;53.482;10.238;2023-04-19T22:49:21;4.80;;;1.80;;
3881;SDS011;1956;53.482;10.238;2023-04-19T22:54:23;1.90;;;1.60;;
3881;SDS011;1956;53.482;10.238;2023-04-19T22:59:23;2.40;;;1.47;;
3881;SDS011;1956;53.482;10.238;2023-04-19T23:04:23;6.20;;;2.20;;
3881;SDS011;1956;53.482;10.238;2023-04-19T23:09:23;2.50;;;1.87;;
3881;SDS011;1956;53.482;10.238;2023-04-19T23:14:24;5.80;;;2.00;;
3881;SDS011;1956;53.482;10.238;2023-04-19T23:19:24;4.13;;;2.15;;
3881;SDS011;1956;53.482;10.238;2023-04-19T23:24:24;4.30;;;2.27;;
3881;SDS011;1956;53.482;10.238;2023-04-19T23:29:24;4.53;;;2.20;;
3881;SDS011;1956;53.482;10.238;2023-04-19T23:34:25;3.37;;;2.23;;
3881;SDS011;1956;53.482;10.238;2023-04-19T23:39:25;3.57;;;2.07;;
3881;SDS011;1956;53.482;10.238;2023-04-19T23:44:25;3.73;;;1.97;;
3881;SDS011;1956;53.482;10.238;2023-04-19T23:49:26;6.87;;;2.03;;
3881;SDS011;1956;53.482;10.238;2023-04-19T23:54:26;3.37;;;1.70;;
3881;SDS011;1956;53.482;10.238;2023-04-19T23:59:26;8.33;;;2.67;;
